Time;durP1;ratioP1;P1;durP2;ratioP2;P2;SDS_P1;SDS_P2;PMS_P1;PMS_P2;Temp;Humidity;BMP_temperature;BMP_pressure;BME280_temperature;BME280_humidity;BME280_pressure;Samples;Min_cycle;Max_cycle;Signal;HPM_P1;HPM_P2
2023/02/08 00:00:48;;;;;;;3.20;2.38;;;19.90;30.60;;;;;;5059810;28;20028;-51
2023/02/08 00:03:14;;;;;;;2.70;2.20;;;19.90;30.50;;;;;;5058485;28;20360;-53
2023/02/08 00:05:40;;;;;;;2.97;2.42;;;19.90;30.50;;;;;;5053602;28;20435;-53
2023/02/08 00:08:06;;;;;;;3.33;2.50;;;19.90;30.50;;;;;;5042130;28;20132;-52
2023/02/08 00:10:32;;;;;;;2.90;2.10;;;19.90;30.50;;;;;;5064162;28;20055;-51
2023/02/08 00:12:58;;;;;;;4.40;2.05;;;19.90;30.50;;;;;;5055822;28;20044;-51
2023/02/08 00:15:24;;;;;;;3.42;2.42;;;19.90;30.60;;;;;;5054722;28;20509;-53
2023/02/08 00:17:50;;;;;;;2.20;2.00;;;19.90;30.60;;;;;;5062681;28;20056;-54
2023/02/08 00:20:16;;;;;;;3.10;2.30;;;19.90;30.60;;;;;;5054752;28;20025;-55
2023/02/08 00:22:42;;;;;;;2.60;2.00;;;19.90;30.50;;;;;;5036991;28;20033;-50
2023/02/08 00:25:08;;;;;;;2.92;2.33;;;19.90;30.50;;;;;;5056217;28;20547;-53
2023/02/08 00:27:35;;;;;;;3.05;2.22;;;19.90;30.50;;;;;;5053462;28;20120;-54
2023/02/08 00:30:01;;;;;;;2.80;2.22;;;19.90;30.40;;;;;;5054029;28;20048;-51
2023/02/08 00:32:29;;;;;;;3.53;2.35;;;19.80;30.40;;;;;;5032960;28;20364;-52
2023/02/08 00:34:55;;;;;;;2.78;2.30;;;19.80;30.40;;;;;;5036132;28;20044;-54
2023/02/08 00:37:20;;;;;;;3.22;2.25;;;19.90;30.40;;;;;;5044726;28;20036;-51
2023/02/08 00:39:48;;;;;;;3.35;2.10;;;19.80;30.40;;;;;;5051432;28;20055;-54
2023/02/08 00:42:15;;;;;;;2.97;2.30;;;19.80;30.30;;;;;;5052943;28;20043;-54
2023/02/08 00:44:40;;;;;;;3.03;2.22;;;19.80;30.30;;;;;;5035237;28;20051;-53
2023/02/08 00:47:06;;;;;;;2.55;2.08;;;19.80;30.30;;;;;;5052412;28;20076;-51
2023/02/08 00:49:32;;;;;;;2.38;2.10;;;19.80;30.30;;;;;;5054287;28;20037;-54
2023/02/08 00:51:58;;;;;;;3.60;2.50;;;19.80;30.30;;;;;;5054216;28;20035;-55
2023/02/08 00:54:24;;;;;;;3.03;2.30;;;19.80;30.30;;;;;;5038566;28;20140;-52
2023/02/08 00:56:49;;;;;;;2.40;2.10;;;19.80;30.30;;;;;;5054006;28;20409;-55
2023/02/08 00:59:17;;;;;;;3.17;2.35;;;19.80;30.20;;;;;;5052550;28;20032;-49
2023/02/08 01:01:44;;;;;;;2.75;2.00;;;19.80;30.30;;;;;;5045123;28;20110;-51
2023/02/08 01:04:10;;;;;;;2.85;2.20;;;19.80;30.20;;;;;;5054604;28;20040;-53
2023/02/08 01:06:36;;;;;;;3.28;2.30;;;19.70;30.20;;;;;;5050029;28;20455;-51
2023/02/08 01:09:02;;;;;;;3.17;2.35;;;19.80;30.20;;;;;;5053384;28;20035;-51
2023/02/08 01:11:28;;;;;;;3.58;2.33;;;19.70;30.10;;;;;;5050484;28;20498;-53
2023/02/08 01:13:59;;;;;;;2.65;2.33;;;19.70;30.10;;;;;;5052812;28;20498;-54
2023/02/08 01:16:30;;;;;;;2.72;2.00;;;19.70;30.10;;;;;;5061394;28;20361;-53
2023/02/08 01:19:00;;;;;;;2.75;2.45;;;19.70;30.00;;;;;;5060805;28;20047;-55
2023/02/08 01:21:29;;;;;;;3.83;2.30;;;19.70;30.00;;;;;;5039667;28;20016;-55
2023/02/08 01:23:55;;;;;;;2.55;2.20;;;19.70;30.00;;;;;;5029317;28;20048;-55
2023/02/08 01:26:22;;;;;;;3.55;2.25;;;19.70;30.00;;;;;;5055975;28;20440;-51
2023/02/08 01:28:49;;;;;;;3.38;2.47;;;19.70;30.00;;;;;;5053127;28;20120;-53
2023/02/08 01:31:18;;;;;;;3.47;2.70;;;19.70;30.00;;;;;;5054623;28;20111;-48
2023/02/08 01:33:44;;;;;;;2.92;2.00;;;19.70;30.00;;;;;;5056411;28;20037;-52
2023/02/08 01:36:10;;;;;;;3.20;2.63;;;19.70;30.00;;;;;;5051137;28;20035;-49
2023/02/08 01:38:36;;;;;;;2.75;2.38;;;19.60;30.00;;;;;;5053856;28;20632;-54
2023/02/08 01:41:04;;;;;;;2.97;2.30;;;19.70;30.00;;;;;;5038223;28;20029;-53
2023/02/08 01:43:52;;;;;;;2.92;2.28;;;19.60;29.90;;;;;;5054336;28;20037;-55
2023/02/08 01:46:18;;;;;;;3.42;2.63;;;19.60;29.90;;;;;;5038428;28;20101;-52
2023/02/08 01:48:44;;;;;;;2.75;2.38;;;19.60;29.90;;;;;;5053208;28;20032;-48
2023/02/08 01:51:23;;;;;;;3.13;2.35;;;19.60;29.90;;;;;;5036995;28;20205;-53
2023/02/08 01:53:52;;;;;;;3.88;2.72;;;19.60;29.90;;;;;;5054232;28;20072;-54
2023/02/08 01:56:25;;;;;;;5.13;2.80;;;19.60;29.90;;;;;;5038954;28;20033;-54
2023/02/08 01:58:55;;;;;;;3.55;2.80;;;19.60;29.90;;;;;;5040872;28;20028;-51
2023/02/08 02:01:24;;;;;;;3.20;2.78;;;19.60;29.80;;;;;;5044800;28;20112;-54
2023/02/08 02:03:50;;;;;;;3.00;2.60;;;19.60;29.90;;;;;;5041134;28;20043;-52
2023/02/08 02:06:21;;;;;;;3.28;2.50;;;19.60;29.80;;;;;;5055075;28;20029;-53
2023/02/08 02:08:55;;;;;;;2.67;2.35;;;19.60;30.40;;;;;;5040153;28;20460;-50
2023/02/08 02:11:20;;;;;;;2.72;2.47;;;19.60;29.80;;;;;;5038375;28;20437;-51
2023/02/08 02:13:49;;;;;;;3.30;2.67;;;19.50;29.80;;;;;;5057570;28;20044;-53
2023/02/08 02:16:15;;;;;;;4.32;2.55;;;19.60;29.80;;;;;;5040632;28;20029;-54
2023/02/08 02:18:42;;;;;;;4.05;2.75;;;19.60;29.80;;;;;;5061154;28;20490;-53
2023/02/08 02:21:36;;;;;;;3.55;2.60;;;19.50;29.70;;;;;;5041838;28;20036;-47
2023/02/08 02:24:16;;;;;;;3.88;2.58;;;19.50;29.80;;;;;;5059041;28;20045;-50
2023/02/08 02:26:41;;;;;;;3.70;2.75;;;19.50;29.80;;;;;;5055675;28;20024;-54
2023/02/08 02:29:30;;;;;;;3.17;2.58;;;19.50;29.80;;;;;;5057959;28;20032;-55
2023/02/08 02:32:33;;;;;;;3.13;2.70;;;19.50;29.80;;;;;;5056040;28;20090;-51
2023/02/08 02:35:38;;;;;;;3.03;2.53;;;19.50;29.80;;;;;;5062663;28;20035;-55
2023/02/08 02:38:15;;;;;;;4.00;2.90;;;19.50;29.70;;;;;;5060458;28;20108;-54
2023/02/08 02:40:50;;;;;;;3.75;2.80;;;19.50;29.80;;;;;;5043440;28;20045;-53
2023/02/08 02:43:46;;;;;;;3.28;2.80;;;19.50;29.80;;;;;;5039359;28;20067;-52
2023/02/08 02:46:27;;;;;;;4.43;2.80;;;19.40;29.70;;;;;;5055441;28;20142;-54
2023/02/08 02:49:17;;;;;;;3.97;3.08;;;19.40;29.70;;;;;;5044388;28;20033;-54
2023/02/08 02:51:57;;;;;;;3.83;2.83;;;19.40;29.70;;;;;;5040845;28;20434;-55
2023/02/08 02:54:40;;;;;;;3.22;2.45;;;19.40;29.70;;;;;;5038976;28;20048;-51
2023/02/08 02:57:11;;;;;;;3.80;2.70;;;19.40;29.70;;;;;;5041813;28;20502;-55
2023/02/08 02:59:38;;;;;;;3.88;2.80;;;19.40;29.70;;;;;;5058714;28;20044;-55
2023/02/08 03:02:04;;;;;;;5.03;2.80;;;19.40;29.70;;;;;;5060244;28;20082;-54
2023/02/08 03:04:33;;;;;;;4.53;2.60;;;19.40;29.70;;;;;;5060491;28;20343;-53
2023/02/08 03:07:10;;;;;;;3.65;2.40;;;19.40;29.60;;;;;;5062323;28;20033;-53
2023/02/08 03:10:13;;;;;;;3.65;2.70;;;19.40;29.60;;;;;;5057655;28;20024;-52
2023/02/08 03:12:49;;;;;;;2.90;2.53;;;19.40;29.60;;;;;;5062108;28;20351;-53
2023/02/08 03:15:31;;;;;;;3.88;2.85;;;19.40;29.60;;;;;;5064505;28;20127;-53
2023/02/08 03:18:18;;;;;;;3.40;2.88;;;19.40;29.60;;;;;;5063088;28;20040;-54
2023/02/08 03:21:10;;;;;;;3.05;2.53;;;19.40;29.60;;;;;;5060268;28;20093;-53
2023/02/08 03:23:36;;;;;;;4.68;2.95;;;19.30;29.60;;;;;;5057686;28;20037;-50
2023/02/08 03:26:30;;;;;;;4.25;2.90;;;19.30;29.50;;;;;;5057944;28;20039;-52
2023/02/08 03:29:21;;;;;;;3.53;2.73;;;19.40;29.60;;;;;;5050726;28;21757;-54
2023/02/08 03:31:54;;;;;;;3.47;2.47;;;19.30;29.50;;;;;;5061824;28;20287;-53
2023/02/08 03:34:25;;;;;;;2.97;2.33;;;19.30;29.50;;;;;;5044278;28;20063;-54
2023/02/08 03:37:04;;;;;;;3.53;2.80;;;19.30;29.50;;;;;;5039000;28;20371;-54
2023/02/08 03:39:33;;;;;;;4.45;2.90;;;19.30;29.50;;;;;;5061511;28;20364;-49
2023/02/08 03:42:05;;;;;;;4.05;3.00;;;19.30;29.50;;;;;;5056370;28;20041;-53
2023/02/08 03:44:50;;;;;;;3.45;2.67;;;19.30;29.50;;;;;;5062262;28;20040;-53
2023/02/08 03:47:20;;;;;;;4.55;2.90;;;19.30;29.50;;;;;;5055273;28;20055;-54
2023/02/08 03:49:51;;;;;;;2.90;2.60;;;19.30;29.50;;;;;;5061060;28;20112;-56
2023/02/08 03:52:17;;;;;;;3.83;2.70;;;19.30;29.50;;;;;;5056496;28;20134;-52
2023/02/08 03:55:10;;;;;;;3.45;2.80;;;19.30;29.50;;;;;;5058016;28;20044;-53
2023/02/08 03:57:50;;;;;;;4.10;3.00;;;19.30;29.50;;;;;;5042802;28;20033;-52
2023/02/08 04:00:17;;;;;;;4.55;3.00;;;19.20;29.40;;;;;;5062019;28;20035;-52
2023/02/08 04:03:01;;;;;;;3.70;2.58;;;19.30;29.50;;;;;;5060235;28;20094;-55
2023/02/08 04:05:27;;;;;;;3.20;2.70;;;19.30;29.50;;;;;;5038225;28;20041;-54
2023/02/08 04:07:54;;;;;;;3.92;2.88;;;19.20;29.50;;;;;;5055881;28;20086;-52
2023/02/08 04:10:20;;;;;;;5.18;2.78;;;19.20;29.50;;;;;;5062920;28;20024;-55
2023/02/08 04:12:47;;;;;;;4.20;3.45;;;19.20;29.50;;;;;;5059939;28;20033;-55
2023/02/08 04:15:13;;;;;;;3.75;3.28;;;19.20;29.50;;;;;;5059028;28;20124;-50
2023/02/08 04:17:39;;;;;;;3.92;2.78;;;19.20;29.50;;;;;;5063242;28;20509;-50
2023/02/08 04:20:05;;;;;;;3.33;2.67;;;19.20;29.50;;;;;;5061838;28;20394;-55
2023/02/08 04:22:32;;;;;;;7.40;3.03;;;19.20;29.40;;;;;;5059490;28;20028;-52
2023/02/08 04:24:58;;;;;;;3.50;2.75;;;19.20;29.40;;;;;;5058192;28;20036;-52
2023/02/08 04:27:24;;;;;;;3.65;2.80;;;19.20;29.40;;;;;;5043157;28;20155;-54
2023/02/08 04:29:50;;;;;;;3.90;3.05;;;19.20;29.40;;;;;;5037397;28;20152;-52
2023/02/08 04:32:16;;;;;;;4.55;2.75;;;19.20;29.40;;;;;;5057998;28;20119;-50
2023/02/08 04:34:42;;;;;;;3.53;2.83;;;19.20;29.30;;;;;;5060139;28;20064;-55
2023/02/08 04:37:08;;;;;;;5.25;3.05;;;19.20;29.40;;;;;;5040824;28;20472;-55
2023/02/08 04:39:33;;;;;;;3.85;2.83;;;19.20;29.40;;;;;;5053686;28;20031;-52
2023/02/08 04:41:59;;;;;;;4.07;2.90;;;19.10;29.50;;;;;;5056016;28;20173;-51
2023/02/08 04:44:26;;;;;;;4.80;3.30;;;19.20;29.30;;;;;;5056913;28;20452;-51
2023/02/08 04:46:51;;;;;;;3.92;2.90;;;19.20;29.30;;;;;;5058353;28;20099;-53
2023/02/08 04:49:18;;;;;;;4.20;3.28;;;19.10;29.20;;;;;;5058504;28;20120;-51
2023/02/08 04:51:44;;;;;;;4.40;2.97;;;19.20;29.30;;;;;;5054615;28;20033;-52
2023/02/08 04:54:09;;;;;;;3.67;2.92;;;19.10;29.20;;;;;;5059145;28;20039;-54
2023/02/08 04:56:36;;;;;;;3.58;2.55;;;19.10;29.20;;;;;;5057595;28;20059;-54
2023/02/08 04:59:02;;;;;;;3.72;2.63;;;19.10;29.20;;;;;;5042133;28;20032;-55
2023/02/08 05:01:28;;;;;;;4.55;3.10;;;19.10;29.20;;;;;;5056012;28;20090;-54
2023/02/08 05:03:54;;;;;;;3.40;2.78;;;19.10;29.20;;;;;;5064282;28;20036;-52
2023/02/08 05:06:19;;;;;;;3.03;2.60;;;19.10;29.20;;;;;;5059677;28;20105;-53
2023/02/08 05:08:45;;;;;;;3.58;2.67;;;19.10;29.20;;;;;;5062117;28;20342;-51
2023/02/08 05:11:11;;;;;;;3.80;2.72;;;19.10;29.20;;;;;;5056813;28;20059;-55
2023/02/08 05:13:37;;;;;;;3.42;2.50;;;19.10;29.20;;;;;;5060745;28;20351;-52
2023/02/08 05:16:03;;;;;;;5.47;3.20;;;19.10;29.20;;;;;;5060857;28;20029;-51
2023/02/08 05:18:29;;;;;;;3.05;2.70;;;19.10;29.20;;;;;;5068599;28;20341;-53
2023/02/08 05:21:00;;;;;;;4.38;3.10;;;19.10;29.20;;;;;;5058371;28;20055;-50
2023/02/08 05:23:26;;;;;;;4.07;3.28;;;19.10;29.20;;;;;;5057370;28;20169;-54
2023/02/08 05:25:52;;;;;;;4.18;2.90;;;19.10;29.20;;;;;;5053596;28;20053;-54
2023/02/08 05:28:19;;;;;;;3.83;2.97;;;19.10;29.20;;;;;;5055702;28;20407;-55
2023/02/08 05:30:45;;;;;;;4.40;2.90;;;19.10;29.30;;;;;;5039961;28;20055;-49
2023/02/08 05:33:12;;;;;;;4.97;2.85;;;19.10;29.20;;;;;;5062639;28;20032;-54
2023/02/08 05:35:38;;;;;;;4.25;2.90;;;19.00;29.10;;;;;;5059519;28;20433;-51
2023/02/08 05:38:04;;;;;;;4.53;2.90;;;19.00;29.60;;;;;;5058936;28;20124;-53
2023/02/08 05:40:32;;;;;;;3.85;2.65;;;19.00;29.20;;;;;;5064364;28;20056;-52
2023/02/08 05:42:58;;;;;;;4.57;3.67;;;19.00;29.20;;;;;;5059572;28;20356;-54
2023/02/08 05:45:23;;;;;;;3.45;2.80;;;19.00;29.20;;;;;;5060077;28;20112;-51
2023/02/08 05:47:49;;;;;;;4.30;3.10;;;19.00;29.20;;;;;;5061098;28;20032;-54
2023/02/08 05:50:16;;;;;;;3.63;3.15;;;19.00;29.20;;;;;;5063925;28;20032;-51
2023/02/08 05:52:41;;;;;;;3.50;2.80;;;19.00;29.20;;;;;;5057012;28;20032;-53
2023/02/08 05:55:07;;;;;;;3.95;3.35;;;19.00;29.20;;;;;;5067908;28;20043;-49
2023/02/08 05:57:33;;;;;;;4.05;3.25;;;19.00;29.20;;;;;;5061277;28;20447;-52
2023/02/08 05:59:59;;;;;;;4.35;3.28;;;19.00;29.20;;;;;;5061206;28;20025;-49
2023/02/08 06:02:25;;;;;;;4.28;3.20;;;19.00;29.30;;;;;;5063368;28;20032;-52
2023/02/08 06:04:51;;;;;;;4.97;3.90;;;19.00;29.30;;;;;;5059051;28;20037;-53
2023/02/08 06:07:16;;;;;;;3.58;2.92;;;19.00;29.30;;;;;;5062979;28;20032;-52
2023/02/08 06:09:42;;;;;;;4.20;3.55;;;19.00;29.30;;;;;;5059600;28;20032;-55
2023/02/08 06:12:08;;;;;;;3.78;3.38;;;19.00;29.40;;;;;;5062707;28;20024;-51
2023/02/08 06:14:34;;;;;;;6.00;3.78;;;19.00;29.40;;;;;;5061362;28;20052;-51
2023/02/08 06:17:00;;;;;;;3.80;3.30;;;19.00;29.40;;;;;;5061417;28;20121;-51
2023/02/08 06:19:26;;;;;;;4.85;3.00;;;19.00;29.40;;;;;;5061124;28;20091;-52
2023/02/08 06:21:51;;;;;;;4.22;3.40;;;18.90;29.40;;;;;;5061010;28;20101;-54
2023/02/08 06:24:17;;;;;;;4.32;3.30;;;19.00;29.40;;;;;;5058441;28;20041;-51
2023/02/08 06:26:43;;;;;;;3.80;2.97;;;19.00;29.40;;;;;;5059510;28;20029;-51
2023/02/08 06:29:09;;;;;;;4.85;3.40;;;18.90;29.40;;;;;;5059020;28;20108;-51
2023/02/08 06:31:35;;;;;;;4.25;3.75;;;18.90;29.40;;;;;;5056302;28;20032;-54
2023/02/08 06:34:01;;;;;;;4.00;3.25;;;18.90;29.40;;;;;;5046301;28;20021;-51
2023/02/08 06:36:27;;;;;;;3.95;3.13;;;18.90;29.40;;;;;;5046800;28;20030;-53
2023/02/08 06:38:53;;;;;;;3.80;3.20;;;18.90;29.40;;;;;;5065225;28;20028;-53
2023/02/08 06:41:19;;;;;;;4.53;3.28;;;18.90;29.40;;;;;;5058085;28;20028;-50
2023/02/08 06:43:45;;;;;;;4.72;3.35;;;18.90;29.40;;;;;;5058566;28;20671;-50
2023/02/08 06:46:10;;;;;;;4.90;3.42;;;18.90;29.40;;;;;;5054634;28;20025;-54
2023/02/08 06:48:37;;;;;;;4.50;3.70;;;18.90;29.40;;;;;;5061349;28;20059;-55
2023/02/08 06:51:03;;;;;;;4.55;3.20;;;18.90;29.40;;;;;;5061958;28;20142;-53
2023/02/08 06:53:29;;;;;;;5.18;3.20;;;18.90;29.40;;;;;;5059090;28;20334;-52
2023/02/08 06:55:55;;;;;;;4.35;3.25;;;18.90;29.40;;;;;;5040616;28;20256;-54
2023/02/08 06:58:21;;;;;;;4.35;3.40;;;18.90;29.40;;;;;;5064934;28;20113;-50
2023/02/08 07:00:47;;;;;;;4.40;3.40;;;18.90;29.50;;;;;;5066564;28;20033;-52
2023/02/08 07:03:14;;;;;;;4.65;3.45;;;18.90;29.50;;;;;;5066892;28;20028;-49
2023/02/08 07:05:40;;;;;;;4.70;3.40;;;18.90;29.50;;;;;;5061094;28;20044;-50
2023/02/08 07:08:07;;;;;;;6.07;3.38;;;18.90;29.50;;;;;;5058100;28;20033;-48
2023/02/08 07:10:33;;;;;;;5.10;3.20;;;18.90;29.50;;;;;;5057042;28;20025;-55
2023/02/08 07:13:00;;;;;;;4.32;3.33;;;18.80;29.40;;;;;;5061935;28;20360;-55
2023/02/08 07:15:27;;;;;;;7.43;3.47;;;18.90;29.50;;;;;;5042017;28;20526;-53
2023/02/08 07:17:52;;;;;;;4.45;3.40;;;18.80;29.40;;;;;;5046741;28;21171;-55
2023/02/08 07:20:18;;;;;;;4.05;3.03;;;18.80;29.50;;;;;;5037659;28;20036;-57
2023/02/08 07:22:44;;;;;;;4.82;3.50;;;18.80;29.50;;;;;;5041133;28;20191;-54
2023/02/08 07:25:10;;;;;;;5.00;3.30;;;18.80;29.50;;;;;;5047719;28;20033;-52
2023/02/08 07:27:36;;;;;;;6.00;3.25;;;18.80;29.60;;;;;;5034105;28;20457;-51
2023/02/08 07:30:02;;;;;;;4.65;3.60;;;18.80;29.60;;;;;;5033498;28;20036;-54
2023/02/08 07:32:28;;;;;;;4.20;3.30;;;18.80;29.60;;;;;;5037010;28;20029;-51
2023/02/08 07:34:54;;;;;;;6.30;3.60;;;18.80;29.60;;;;;;5032818;28;20025;-54
2023/02/08 07:37:19;;;;;;;3.75;3.30;;;18.80;29.50;;;;;;5033420;28;20023;-53
2023/02/08 07:39:45;;;;;;;4.78;3.60;;;18.80;29.50;;;;;;5034271;28;20040;-53
2023/02/08 07:42:11;;;;;;;4.97;3.55;;;18.80;29.50;;;;;;5037790;28;20032;-53
2023/02/08 07:44:50;;;;;;;5.88;3.47;;;18.80;29.40;;;;;;5037305;28;20047;-54
2023/02/08 07:47:16;;;;;;;5.40;3.63;;;18.80;29.30;;;;;;5035621;28;20021;-53
2023/02/08 07:49:42;;;;;;;5.10;3.78;;;18.80;29.30;;;;;;5048336;28;20464;-53
2023/02/08 07:52:08;;;;;;;5.97;3.75;;;18.80;29.30;;;;;;5036227;28;20079;-51
2023/02/08 07:54:34;;;;;;;5.72;3.55;;;18.80;29.30;;;;;;5032544;28;20025;-56
2023/02/08 07:57:00;;;;;;;5.72;3.80;;;18.80;29.20;;;;;;5034206;28;20033;-53
2023/02/08 07:59:26;;;;;;;5.80;3.70;;;18.90;29.20;;;;;;5036317;28;20040;-55
2023/02/08 08:01:52;;;;;;;4.18;3.47;;;18.90;29.20;;;;;;5033260;28;20425;-52
2023/02/08 08:04:18;;;;;;;4.65;3.47;;;18.90;29.10;;;;;;5035529;28;20033;-54
2023/02/08 08:06:45;;;;;;;4.72;3.15;;;19.00;29.10;;;;;;5035063;28;20048;-55
2023/02/08 08:09:11;;;;;;;5.10;3.67;;;19.00;29.00;;;;;;5032252;28;20029;-55
2023/02/08 08:11:37;;;;;;;4.97;3.63;;;19.10;29.00;;;;;;5033187;28;20032;-52
2023/02/08 08:14:03;;;;;;;5.13;3.63;;;19.10;28.90;;;;;;5031696;28;20511;-55
2023/02/08 08:16:28;;;;;;;4.38;3.47;;;19.10;28.90;;;;;;5032422;28;20053;-55
2023/02/08 08:18:54;;;;;;;4.63;3.53;;;19.20;28.90;;;;;;5035532;28;20342;-53
2023/02/08 08:21:20;;;;;;;4.65;3.50;;;19.30;28.80;;;;;;5034952;28;20043;-51
2023/02/08 08:23:46;;;;;;;5.25;3.65;;;19.40;28.80;;;;;;5035607;28;20038;-53
2023/02/08 08:26:17;;;;;;;4.75;3.63;;;19.40;28.80;;;;;;5034177;28;20096;-53
2023/02/08 08:28:45;;;;;;;5.05;3.60;;;19.50;28.70;;;;;;5034828;28;20357;-55
2023/02/08 08:31:17;;;;;;;5.32;3.60;;;19.50;28.60;;;;;;5046294;28;20029;-55
2023/02/08 08:33:43;;;;;;;5.13;3.65;;;19.60;28.60;;;;;;5039883;28;20481;-56
2023/02/08 08:36:09;;;;;;;4.78;3.50;;;19.70;28.60;;;;;;5049383;28;20052;-53
2023/02/08 08:38:37;;;;;;;4.45;3.17;;;19.70;28.50;;;;;;5043635;28;20056;-53
2023/02/08 08:41:08;;;;;;;4.30;3.13;;;19.80;28.50;;;;;;5035515;28;20037;-51
2023/02/08 08:43:34;;;;;;;5.60;3.65;;;19.80;28.40;;;;;;5036052;28;20407;-52
2023/02/08 08:46:02;;;;;;;5.32;3.50;;;19.90;28.40;;;;;;5037343;28;20021;-54
2023/02/08 08:48:28;;;;;;;4.55;3.55;;;20.00;28.40;;;;;;5037216;28;20041;-51
2023/02/08 08:50:54;;;;;;;6.03;3.67;;;20.00;28.30;;;;;;5031512;28;20040;-57
2023/02/08 08:53:21;;;;;;;4.88;3.40;;;20.00;28.30;;;;;;5036003;28;20503;-55
2023/02/08 08:55:47;;;;;;;3.95;3.08;;;20.10;28.50;;;;;;5033290;28;20052;-54
2023/02/08 08:58:13;;;;;;;4.55;3.45;;;20.20;28.60;;;;;;5037981;28;20025;-50
2023/02/08 09:00:38;;;;;;;4.45;3.35;;;20.20;28.60;;;;;;5039387;28;20111;-54
2023/02/08 09:03:04;;;;;;;5.15;3.50;;;20.20;28.60;;;;;;5045617;28;20041;-51
2023/02/08 09:05:30;;;;;;;4.60;3.13;;;20.20;28.50;;;;;;5041697;28;20037;-47
2023/02/08 09:07:56;;;;;;;4.90;2.90;;;20.30;28.50;;;;;;5043535;28;20090;-50
2023/02/08 09:10:22;;;;;;;4.30;3.03;;;20.30;28.30;;;;;;5045724;28;20329;-51
2023/02/08 09:12:48;;;;;;;5.30;3.45;;;20.40;28.30;;;;;;5044452;28;20030;-52
2023/02/08 09:15:14;;;;;;;4.22;3.13;;;20.40;28.20;;;;;;5057392;28;20186;-52
2023/02/08 09:17:40;;;;;;;5.90;3.55;;;20.40;28.10;;;;;;5058292;28;20037;-54
2023/02/08 09:20:06;;;;;;;4.68;3.28;;;20.40;28.10;;;;;;5067137;28;20120;-53
2023/02/08 09:22:32;;;;;;;7.00;3.47;;;20.40;28.00;;;;;;5061665;28;20059;-52
2023/02/08 09:24:58;;;;;;;6.93;3.30;;;20.50;28.00;;;;;;5060633;28;20021;-53
2023/02/08 09:27:24;;;;;;;5.13;3.47;;;20.50;28.00;;;;;;5045818;28;20353;-53
2023/02/08 09:29:50;;;;;;;4.53;3.42;;;20.50;27.90;;;;;;5061234;28;20111;-48
2023/02/08 09:32:16;;;;;;;6.72;3.70;;;20.50;27.90;;;;;;5044781;28;20024;-53
2023/02/08 09:34:41;;;;;;;5.10;3.40;;;20.50;27.90;;;;;;5062673;28;20410;-53
2023/02/08 09:37:07;;;;;;;4.03;2.95;;;20.50;27.80;;;;;;5063952;28;20067;-52
2023/02/08 09:39:33;;;;;;;4.25;3.20;;;20.50;27.80;;;;;;5063206;28;20031;-51
2023/02/08 09:42:23;;;;;;;4.03;3.10;;;20.50;27.80;;;;;;5044524;28;20021;-54
2023/02/08 09:44:55;;;;;;;5.72;3.75;;;20.50;27.80;;;;;;5061911;28;20106;-50
2023/02/08 09:47:41;;;;;;;4.97;3.50;;;20.50;27.70;;;;;;5063002;28;20452;-50
2023/02/08 09:50:42;;;;;;;4.40;3.30;;;20.50;27.70;;;;;;5065996;28;20111;-53
2023/02/08 09:53:20;;;;;;;5.78;3.47;;;20.50;27.70;;;;;;4999023;28;20072;-52
2023/02/08 09:55:58;;;;;;;4.50;3.50;;;20.50;27.60;;;;;;5063068;28;20025;-54
2023/02/08 09:58:43;;;;;;;4.55;3.30;;;20.50;27.70;;;;;;5061872;28;20048;-52
2023/02/08 10:01:33;;;;;;;4.85;3.40;;;20.50;27.60;;;;;;5063023;28;20025;-52
2023/02/08 10:04:07;;;;;;;4.75;3.20;;;20.40;27.50;;;;;;5061010;28;20045;-54
2023/02/08 10:06:33;;;;;;;4.15;3.08;;;20.40;27.50;;;;;;5061757;28;20067;-52
2023/02/08 10:09:04;;;;;;;4.35;3.22;;;20.40;27.40;;;;;;5060123;28;20049;-54
2023/02/08 10:11:47;;;;;;;5.22;3.70;;;20.40;27.40;;;;;;5062670;28;20112;-53
2023/02/08 10:14:52;;;;;;;5.60;3.65;;;20.40;27.40;;;;;;5047056;28;20057;-50
2023/02/08 10:17:33;;;;;;;5.32;3.42;;;20.40;27.50;;;;;;5056885;28;20036;-53
2023/02/08 10:20:14;;;;;;;4.75;3.50;;;20.40;27.40;;;;;;5063047;28;20045;-52
2023/02/08 10:22:58;;;;;;;4.40;3.45;;;20.40;27.40;;;;;;5064723;28;20044;-52
2023/02/08 10:25:45;;;;;;;5.07;3.40;;;20.40;27.40;;;;;;5064535;28;20124;-53
2023/02/08 10:28:48;;;;;;;5.45;3.53;;;20.40;27.40;;;;;;5064390;28;20028;-55
2023/02/08 10:31:20;;;;;;;3.85;3.20;;;20.40;27.30;;;;;;5063296;28;20025;-54
2023/02/08 10:34:10;;;;;;;4.55;3.42;;;20.40;27.30;;;;;;5064424;28;20090;-52
2023/02/08 10:36:40;;;;;;;4.95;3.58;;;20.30;27.30;;;;;;5062227;28;20032;-50
2023/02/08 10:39:27;;;;;;;4.95;3.47;;;20.40;27.30;;;;;;5065336;28;20071;-50
2023/02/08 10:41:53;;;;;;;5.13;2.90;;;20.30;27.80;;;;;;5063670;28;20036;-53
2023/02/08 10:44:45;;;;;;;6.07;3.03;;;20.40;28.80;;;;;;5063692;28;20041;-49
2023/02/08 10:47:31;;;;;;;7.30;3.28;;;20.40;29.50;;;;;;5063744;28;20021;-53
2023/02/08 10:50:00;;;;;;;5.70;3.17;;;20.40;29.80;;;;;;5065258;28;20033;-52
2023/02/08 10:52:26;;;;;;;6.03;3.15;;;20.40;30.00;;;;;;5065709;28;20108;-51
2023/02/08 10:54:53;;;;;;;4.75;3.28;;;20.40;30.20;;;;;;5065643;28;20132;-51
2023/02/08 10:57:27;;;;;;;5.63;2.55;;;20.40;30.40;;;;;;5064572;28;20043;-52
2023/02/08 11:00:00;;;;;;;5.30;3.10;;;20.50;30.60;;;;;;5065100;28;20059;-52
2023/02/08 11:02:31;;;;;;;5.60;2.73;;;20.50;30.70;;;;;;5061978;28;20021;-53
2023/02/08 11:05:11;;;;;;;5.05;2.75;;;20.50;30.90;;;;;;5063958;28;20108;-53
2023/02/08 11:07:38;;;;;;;4.38;2.75;;;20.50;31.00;;;;;;5062909;28;20048;-51
2023/02/08 11:10:19;;;;;;;4.07;2.63;;;20.50;31.00;;;;;;5064329;28;20028;-53
2023/02/08 11:12:56;;;;;;;4.63;3.05;;;20.60;31.00;;;;;;5069207;28;20036;-51
2023/02/08 11:15:26;;;;;;;3.78;2.40;;;20.60;31.10;;;;;;5063703;28;20121;-50
2023/02/08 11:18:03;;;;;;;4.30;3.00;;;20.60;31.00;;;;;;5059147;28;20075;-48
2023/02/08 11:20:38;;;;;;;4.97;2.40;;;20.70;31.10;;;;;;5061959;28;20043;-47
2023/02/08 11:23:27;;;;;;;5.22;2.70;;;20.70;31.10;;;;;;5062408;28;20040;-48
2023/02/08 11:26:11;;;;;;;4.85;2.47;;;20.70;31.10;;;;;;5057388;28;20027;-52
2023/02/08 11:28:37;;;;;;;4.25;2.55;;;20.70;31.10;;;;;;5045854;28;20032;-53
2023/02/08 11:31:17;;;;;;;5.38;2.80;;;20.70;31.10;;;;;;5045208;28;20433;-54
2023/02/08 11:34:09;;;;;;;5.00;3.00;;;20.70;31.10;;;;;;5061246;28;20028;-53
2023/02/08 11:36:42;;;;;;;4.85;2.58;;;20.70;31.10;;;;;;5063872;28;20029;-53
2023/02/08 11:39:38;;;;;;;5.03;2.53;;;20.80;31.10;;;;;;5061734;28;20036;-50
2023/02/08 11:42:06;;;;;;;4.47;2.72;;;20.80;31.00;;;;;;5068624;28;20036;-50
2023/02/08 11:44:40;;;;;;;5.10;2.53;;;20.80;31.00;;;;;;5043114;28;20091;-52
2023/02/08 11:47:09;;;;;;;4.40;2.70;;;20.80;31.00;;;;;;5065564;28;20345;-48
2023/02/08 11:49:50;;;;;;;3.53;2.28;;;20.80;30.90;;;;;;5062821;28;20044;-50
2023/02/08 11:52:25;;;;;;;3.85;2.55;;;20.80;30.90;;;;;;5062839;28;20448;-52
2023/02/08 11:54:54;;;;;;;4.38;2.55;;;20.80;30.90;;;;;;5062824;28;20107;-51
2023/02/08 11:57:22;;;;;;;4.57;2.40;;;20.90;30.90;;;;;;5057060;28;20460;-49
2023/02/08 11:59:50;;;;;;;4.35;2.58;;;20.90;30.80;;;;;;5058684;28;20994;-50
2023/02/08 12:02:36;;;;;;;4.65;2.88;;;20.90;30.80;;;;;;5063173;28;20025;-53
2023/02/08 12:05:11;;;;;;;3.85;2.30;;;20.90;31.00;;;;;;5061126;28;20044;-52
2023/02/08 12:07:46;;;;;;;3.17;2.30;;;20.90;31.10;;;;;;5066698;28;20040;-46
2023/02/08 12:10:44;;;;;;;5.90;2.28;;;20.90;31.30;;;;;;5062620;28;20032;-49
2023/02/08 12:13:45;;;;;;;4.00;2.28;;;20.90;31.40;;;;;;5058881;28;21114;-51
2023/02/08 12:16:37;;;;;;;5.30;2.35;;;21.00;31.50;;;;;;5038748;28;20067;-54
2023/02/08 12:19:30;;;;;;;3.30;1.95;;;21.00;32.20;;;;;;5060696;28;20040;-51
2023/02/08 12:22:15;;;;;;;3.15;2.05;;;21.00;31.60;;;;;;5056967;28;20431;-52
2023/02/08 12:25:08;;;;;;;3.97;2.45;;;21.00;31.60;;;;;;5062471;28;20056;-54
2023/02/08 12:27:46;;;;;;;3.08;2.30;;;21.00;31.70;;;;;;5052496;28;20036;-52
2023/02/08 12:30:51;;;;;;;2.92;2.22;;;21.00;31.70;;;;;;5056911;28;20024;-53
2023/02/08 12:33:36;;;;;;;3.87;2.30;;;21.00;31.70;;;;;;5060378;28;20021;-49
2023/02/08 12:36:08;;;;;;;3.13;2.15;;;21.00;31.70;;;;;;5055699;28;20301;-47
2023/02/08 12:42:14;;;;;;;4.50;2.22;;;21.10;31.70;;;;;;4977251;28;20034;-53
2023/02/08 12:45:04;;;;;;;3.10;2.10;;;21.10;31.70;;;;;;4983731;28;20434;-52
2023/02/08 12:47:52;;;;;;;3.25;2.20;;;21.10;31.60;;;;;;5052281;28;20051;-49
2023/02/08 12:50:40;;;;;;;3.67;2.42;;;21.10;31.60;;;;;;5062532;28;20171;-48
2023/02/08 12:53:38;;;;;;;4.05;1.98;;;21.10;31.50;;;;;;5059689;28;20032;-53
2023/02/08 12:56:15;;;;;;;3.22;1.92;;;21.10;31.40;;;;;;5034578;28;20041;-52
2023/02/08 12:58:50;;;;;;;4.07;2.17;;;21.10;31.40;;;;;;5059360;28;20065;-51
2023/02/08 13:01:27;;;;;;;3.55;2.00;;;21.10;31.40;;;;;;5055334;28;20032;-52
2023/02/08 13:04:06;;;;;;;3.92;2.40;;;21.20;31.40;;;;;;5051883;28;20041;-47
2023/02/08 13:07:17;;;;;;;3.22;2.20;;;21.20;31.40;;;;;;5036331;28;20036;-52
2023/02/08 13:10:15;;;;;;;3.97;2.10;;;21.20;31.40;;;;;;5036578;28;20040;-48
2023/02/08 13:12:45;;;;;;;2.85;1.90;;;21.20;31.30;;;;;;5044494;28;20044;-53
2023/02/08 13:15:36;;;;;;;2.80;1.92;;;21.20;31.30;;;;;;5062394;28;20052;-54